sensor_id;sensor_type;location;lat;lon;timestamp;temperature;humidity
46590;DHT22;32313;48.722;9.362;2022-12-11T00:00:57;-1.50;99.90
46590;DHT22;32313;48.722;9.362;2022-12-11T00:03:22;-1.50;99.90
46590;DHT22;32313;48.722;9.362;2022-12-11T00:05:48;-1.50;99.90
46590;DHT22;32313;48.722;9.362;2022-12-11T00:08:14;-1.60;99.90
46590;DHT22;32313;48.722;9.362;2022-12-11T00:10:46;-1.60;99.90
46590;DHT22;32313;48.722;9.362;2022-12-11T00:13:12;-1.70;99.90
46590;DHT22;32313;48.722;9.362;2022-12-11T00:15:37;-1.70;99.90
46590;DHT22;32313;48.722;9.362;2022-12-11T00:18:03;-1.70;99.90
46590;DHT22;32313;48.722;9.362;2022-12-11T00:20:28;-1.80;99.90
46590;DHT22;32313;48.722;9.362;2022-12-11T00:22:54;-1.90;99.90
46590;DHT22;32313;48.722;9.362;2022-12-11T00:25:20;-2.00;99.90
46590;DHT22;32313;48.722;9.362;2022-12-11T00:27:45;-2.10;99.90
46590;DHT22;32313;48.722;9.362;2022-12-11T00:30:12;-2.10;99.90
46590;DHT22;32313;48.722;9.362;2022-12-11T00:32:38;-2.20;99.90
46590;DHT22;32313;48.722;9.362;2022-12-11T00:35:04;-2.20;99.90
46590;DHT22;32313;48.722;9.362;2022-12-11T00:37:29;-2.20;99.90
46590;DHT22;32313;48.722;9.362;2022-12-11T00:39:55;-2.20;99.90
46590;DHT22;32313;48.722;9.362;2022-12-11T00:42:21;-2.20;99.90
46590;DHT22;32313;48.722;9.362;2022-12-11T00:44:46;-2.20;99.90
46590;DHT22;32313;48.722;9.362;2022-12-11T00:47:12;-2.10;99.90
46590;DHT22;32313;48.722;9.362;2022-12-11T00:49:38;-2.10;99.90
46590;DHT22;32313;48.722;9.362;2022-12-11T00:52:03;-2.00;99.90
46590;DHT22;32313;48.722;9.362;2022-12-11T00:54:29;-2.00;99.90
46590;DHT22;32313;48.722;9.362;2022-12-11T00:56:55;-2.00;99.90
46590;DHT22;32313;48.722;9.362;2022-12-11T00:59:20;-1.90;99.90
46590;DHT22;32313;48.722;9.362;2022-12-11T01:01:46;-1.90;99.90
46590;DHT22;32313;48.722;9.362;2022-12-11T01:04:12;-1.80;99.90
46590;DHT22;32313;48.722;9.362;2022-12-11T01:06:38;-1.80;99.90
46590;DHT22;32313;48.722;9.362;2022-12-11T01:09:04;-1.70;99.90
46590;DHT22;32313;48.722;9.362;2022-12-11T01:11:48;-1.70;99.90
46590;DHT22;32313;48.722;9.362;2022-12-11T01:14:13;-1.60;99.90
46590;DHT22;32313;48.722;9.362;2022-12-11T01:16:39;-1.60;99.90
46590;DHT22;32313;48.722;9.362;2022-12-11T01:19:05;-1.50;99.90
46590;DHT22;32313;48.722;9.362;2022-12-11T01:21:30;-1.50;99.90
46590;DHT22;32313;48.722;9.362;2022-12-11T01:23:56;-1.50;99.90
46590;DHT22;32313;48.722;9.362;2022-12-11T01:26:22;-1.50;99.90
46590;DHT22;32313;48.722;9.362;2022-12-11T01:28:51;-1.50;99.90
46590;DHT22;32313;48.722;9.362;2022-12-11T01:31:18;-1.50;99.90
46590;DHT22;32313;48.722;9.362;2022-12-11T01:33:44;-1.40;99.90
46590;DHT22;32313;48.722;9.362;2022-12-11T01:36:18;-1.40;99.90
46590;DHT22;32313;48.722;9.362;2022-12-11T01:38:47;-1.40;99.90
46590;DHT22;32313;48.722;9.362;2022-12-11T01:41:17;-1.40;99.90
46590;DHT22;32313;48.722;9.362;2022-12-11T01:43:59;-1.40;99.90
46590;DHT22;32313;48.722;9.362;2022-12-11T01:46:26;-1.40;99.90
46590;DHT22;32313;48.722;9.362;2022-12-11T01:48:52;-1.40;99.90
46590;DHT22;32313;48.722;9.362;2022-12-11T01:51:18;-1.40;99.90
46590;DHT22;32313;48.722;9.362;2022-12-11T01:53:57;-1.40;99.90
46590;DHT22;32313;48.722;9.362;2022-12-11T01:56:23;-1.40;99.90
46590;DHT22;32313;48.722;9.362;2022-12-11T01:58:53;-1.40;99.90
46590;DHT22;32313;48.722;9.362;2022-12-11T02:01:34;-1.40;99.90
46590;DHT22;32313;48.722;9.362;2022-12-11T02:04:01;-1.40;99.90
46590;DHT22;32313;48.722;9.362;2022-12-11T02:06:42;-1.40;99.90
46590;DHT22;32313;48.722;9.362;2022-12-11T02:09:12;-1.40;99.90
46590;DHT22;32313;48.722;9.362;2022-12-11T02:18:09;-1.40;99.90
46590;DHT22;32313;48.722;9.362;2022-12-11T02:27:19;-1.40;99.90
46590;DHT22;32313;48.722;9.362;2022-12-11T02:30:08;-1.40;99.90
46590;DHT22;32313;48.722;9.362;2022-12-11T02:32:46;-1.40;99.90
46590;DHT22;32313;48.722;9.362;2022-12-11T02:35:23;-1.40;99.90
46590;DHT22;32313;48.722;9.362;2022-12-11T02:37:57;-1.40;99.90
46590;DHT22;32313;48.722;9.362;2022-12-11T02:40:26;-1.40;99.90
46590;DHT22;32313;48.722;9.362;2022-12-11T02:42:55;-1.40;99.90
46590;DHT22;32313;48.722;9.362;2022-12-11T02:45:23;-1.40;99.90
46590;DHT22;32313;48.722;9.362;2022-12-11T02:47:50;-1.40;99.90
46590;DHT22;32313;48.722;9.362;2022-12-11T02:50:19;-1.40;99.90
46590;DHT22;32313;48.722;9.362;2022-12-11T02:52:47;-1.50;99.90
46590;DHT22;32313;48.722;9.362;2022-12-11T02:55:15;-1.50;99.90
46590;DHT22;32313;48.722;9.362;2022-12-11T02:57:46;-1.50;99.90
46590;DHT22;32313;48.722;9.362;2022-12-11T03:00:13;-1.50;99.90
46590;DHT22;32313;48.722;9.362;2022-12-11T03:02:41;-1.50;99.90
46590;DHT22;32313;48.722;9.362;2022-12-11T03:05:09;-1.50;99.90
46590;DHT22;32313;48.722;9.362;2022-12-11T03:07:37;-1.50;99.90
46590;DHT22;32313;48.722;9.362;2022-12-11T03:10:05;-1.50;99.90
46590;DHT22;32313;48.722;9.362;2022-12-11T03:12:34;-1.60;99.90
46590;DHT22;32313;48.722;9.362;2022-12-11T03:15:03;-1.60;99.90
46590;DHT22;32313;48.722;9.362;2022-12-11T03:17:37;-1.60;99.90
46590;DHT22;32313;48.722;9.362;2022-12-11T03:20:11;-1.60;99.90
46590;DHT22;32313;48.722;9.362;2022-12-11T03:25:46;-1.60;99.90
46590;DHT22;32313;48.722;9.362;2022-12-11T03:28:20;-1.60;99.90
46590;DHT22;32313;48.722;9.362;2022-12-11T03:30:50;-1.60;99.90
46590;DHT22;32313;48.722;9.362;2022-12-11T03:33:31;-1.60;99.90
46590;DHT22;32313;48.722;9.362;2022-12-11T03:36:12;-1.60;99.90
46590;DHT22;32313;48.722;9.362;2022-12-11T03:38:53;-1.60;99.90
46590;DHT22;32313;48.722;9.362;2022-12-11T03:41:23;-1.60;99.90
46590;DHT22;32313;48.722;9.362;2022-12-11T03:43:51;-1.60;99.90
46590;DHT22;32313;48.722;9.362;2022-12-11T03:46:21;-1.70;99.90
46590;DHT22;32313;48.722;9.362;2022-12-11T03:48:48;-1.80;99.90
46590;DHT22;32313;48.722;9.362;2022-12-11T03:51:15;-1.90;99.90
46590;DHT22;32313;48.722;9.362;2022-12-11T03:53:42;-2.00;99.90
46590;DHT22;32313;48.722;9.362;2022-12-11T03:56:10;-2.10;99.90
46590;DHT22;32313;48.722;9.362;2022-12-11T03:58:37;-2.20;99.90
46590;DHT22;32313;48.722;9.362;2022-12-11T04:01:06;-2.30;99.90
46590;DHT22;32313;48.722;9.362;2022-12-11T04:03:32;-2.40;99.90
46590;DHT22;32313;48.722;9.362;2022-12-11T04:05:58;-2.40;99.90
46590;DHT22;32313;48.722;9.362;2022-12-11T04:08:23;-2.50;99.90
46590;DHT22;32313;48.722;9.362;2022-12-11T04:10:50;-2.50;99.90
46590;DHT22;32313;48.722;9.362;2022-12-11T04:13:35;-2.60;99.90
46590;DHT22;32313;48.722;9.362;2022-12-11T04:16:01;-2.60;99.90
46590;DHT22;32313;48.722;9.362;2022-12-11T04:18:26;-2.60;99.90
46590;DHT22;32313;48.722;9.362;2022-12-11T04:21:10;-2.60;99.90
46590;DHT22;32313;48.722;9.362;2022-12-11T04:23:54;-2.50;99.90
46590;DHT22;32313;48.722;9.362;2022-12-11T04:26:46;-2.50;99.90
46590;DHT22;32313;48.722;9.362;2022-12-11T04:29:13;-2.50;99.90
46590;DHT22;32313;48.722;9.362;2022-12-11T04:31:39;-2.50;99.90
46590;DHT22;32313;48.722;9.362;2022-12-11T04:34:04;-2.60;99.90
46590;DHT22;32313;48.722;9.362;2022-12-11T04:36:30;-2.60;99.90
46590;DHT22;32313;48.722;9.362;2022-12-11T04:38:56;-2.60;99.90
46590;DHT22;32313;48.722;9.362;2022-12-11T04:41:22;-2.60;99.90
46590;DHT22;32313;48.722;9.362;2022-12-11T04:43:50;-2.60;99.90
46590;DHT22;32313;48.722;9.362;2022-12-11T04:46:21;-2.50;99.90
46590;DHT22;32313;48.722;9.362;2022-12-11T04:48:47;-2.50;99.90
46590;DHT22;32313;48.722;9.362;2022-12-11T04:51:14;-2.50;99.90
46590;DHT22;32313;48.722;9.362;2022-12-11T04:53:40;-2.40;99.90
46590;DHT22;32313;48.722;9.362;2022-12-11T04:56:08;-2.40;99.90
46590;DHT22;32313;48.722;9.362;2022-12-11T04:58:34;-2.30;99.90
46590;DHT22;32313;48.722;9.362;2022-12-11T05:01:16;-2.20;99.90
46590;DHT22;32313;48.722;9.362;2022-12-11T05:03:42;-2.20;99.90
46590;DHT22;32313;48.722;9.362;2022-12-11T05:06:10;-2.30;99.90
46590;DHT22;32313;48.722;9.362;2022-12-11T05:08:37;-2.30;99.90
46590;DHT22;32313;48.722;9.362;2022-12-11T05:11:06;-2.30;99.90
46590;DHT22;32313;48.722;9.362;2022-12-11T05:13:33;-2.30;99.90
46590;DHT22;32313;48.722;9.362;2022-12-11T05:15:59;-2.30;99.90
46590;DHT22;32313;48.722;9.362;2022-12-11T05:18:25;-2.30;99.90
46590;DHT22;32313;48.722;9.362;2022-12-11T05:20:58;-2.30;99.90
46590;DHT22;32313;48.722;9.362;2022-12-11T05:23:25;-2.20;99.90
46590;DHT22;32313;48.722;9.362;2022-12-11T05:25:52;-2.20;99.90
46590;DHT22;32313;48.722;9.362;2022-12-11T05:28:17;-2.20;99.90
46590;DHT22;32313;48.722;9.362;2022-12-11T05:30:43;-2.20;99.90
46590;DHT22;32313;48.722;9.362;2022-12-11T05:33:09;-2.20;99.90
46590;DHT22;32313;48.722;9.362;2022-12-11T05:35:34;-2.20;99.90
46590;DHT22;32313;48.722;9.362;2022-12-11T05:38:00;-2.30;99.90
46590;DHT22;32313;48.722;9.362;2022-12-11T05:40:26;-2.30;99.90
46590;DHT22;32313;48.722;9.362;2022-12-11T05:42:51;-2.30;99.90
46590;DHT22;32313;48.722;9.362;2022-12-11T05:45:17;-2.30;99.90
46590;DHT22;32313;48.722;9.362;2022-12-11T05:47:43;-2.40;99.90
46590;DHT22;32313;48.722;9.362;2022-12-11T05:50:08;-2.30;99.90
46590;DHT22;32313;48.722;9.362;2022-12-11T05:52:35;-2.40;99.90
46590;DHT22;32313;48.722;9.362;2022-12-11T05:55:01;-2.40;99.90
46590;DHT22;32313;48.722;9.362;2022-12-11T05:57:26;-2.60;99.90
46590;DHT22;32313;48.722;9.362;2022-12-11T05:59:52;-2.80;99.90
46590;DHT22;32313;48.722;9.362;2022-12-11T06:02:18;-3.00;99.90
46590;DHT22;32313;48.722;9.362;2022-12-11T06:04:43;-3.20;99.90
46590;DHT22;32313;48.722;9.362;2022-12-11T06:07:09;-3.30;99.90
46590;DHT22;32313;48.722;9.362;2022-12-11T06:09:34;-3.40;99.90
46590;DHT22;32313;48.722;9.362;2022-12-11T06:12:00;-3.50;99.90
46590;DHT22;32313;48.722;9.362;2022-12-11T06:14:26;-3.70;99.90
46590;DHT22;32313;48.722;9.362;2022-12-11T06:16:51;-3.80;99.90
46590;DHT22;32313;48.722;9.362;2022-12-11T06:19:17;-3.90;99.90
46590;DHT22;32313;48.722;9.362;2022-12-11T06:21:44;-4.00;99.90
46590;DHT22;32313;48.722;9.362;2022-12-11T06:24:10;-4.00;99.90
46590;DHT22;32313;48.722;9.362;2022-12-11T06:26:36;-3.90;99.90
46590;DHT22;32313;48.722;9.362;2022-12-11T06:29:02;-3.80;99.90
46590;DHT22;32313;48.722;9.362;2022-12-11T06:31:28;-3.70;99.90
46590;DHT22;32313;48.722;9.362;2022-12-11T06:33:54;-3.60;99.90
46590;DHT22;32313;48.722;9.362;2022-12-11T06:36:21;-3.50;99.90
46590;DHT22;32313;48.722;9.362;2022-12-11T06:38:47;-3.40;99.90
46590;DHT22;32313;48.722;9.362;2022-12-11T06:41:13;-3.30;99.90
46590;DHT22;32313;48.722;9.362;2022-12-11T06:43:40;-3.20;99.90
46590;DHT22;32313;48.722;9.362;2022-12-11T06:46:12;-3.20;99.90
46590;DHT22;32313;48.722;9.362;2022-12-11T06:48:38;-3.20;99.90
46590;DHT22;32313;48.722;9.362;2022-12-11T06:51:18;-3.30;99.90
46590;DHT22;32313;48.722;9.362;2022-12-11T06:53:44;-3.40;99.90
46590;DHT22;32313;48.722;9.362;2022-12-11T06:56:14;-3.40;99.90
46590;DHT22;32313;48.722;9.362;2022-12-11T06:58:40;-3.50;99.90
46590;DHT22;32313;48.722;9.362;2022-12-11T07:01:15;-3.60;99.90
46590;DHT22;32313;48.722;9.362;2022-12-11T07:03:41;-3.70;99.90
46590;DHT22;32313;48.722;9.362;2022-12-11T07:06:07;-3.80;99.90
46590;DHT22;32313;48.722;9.362;2022-12-11T07:08:33;-3.90;99.90
46590;DHT22;32313;48.722;9.362;2022-12-11T07:11:04;-4.00;99.90
46590;DHT22;32313;48.722;9.362;2022-12-11T07:13:29;-4.10;99.90
46590;DHT22;32313;48.722;9.362;2022-12-11T07:15:57;-4.30;99.90
46590;DHT22;32313;48.722;9.362;2022-12-11T07:18:23;-4.30;99.90
46590;DHT22;32313;48.722;9.362;2022-12-11T07:20:49;-4.30;99.90
46590;DHT22;32313;48.722;9.362;2022-12-11T07:23:14;-4.30;99.90
46590;DHT22;32313;48.722;9.362;2022-12-11T07:25:40;-4.30;99.90
46590;DHT22;32313;48.722;9.362;2022-12-11T07:28:06;-4.20;99.90
46590;DHT22;32313;48.722;9.362;2022-12-11T07:30:32;-4.10;99.90
46590;DHT22;32313;48.722;9.362;2022-12-11T07:32:57;-3.90;99.90
46590;DHT22;32313;48.722;9.362;2022-12-11T07:35:23;-3.80;99.90
46590;DHT22;32313;48.722;9.362;2022-12-11T07:37:49;-3.50;99.90
46590;DHT22;32313;48.722;9.362;2022-12-11T07:40:15;-3.30;99.90
46590;DHT22;32313;48.722;9.362;2022-12-11T07:42:41;-3.10;99.90
46590;DHT22;32313;48.722;9.362;2022-12-11T07:45:07;-2.90;99.90
46590;DHT22;32313;48.722;9.362;2022-12-11T07:47:33;-2.80;99.90
46590;DHT22;32313;48.722;9.362;2022-12-11T07:49:58;-2.70;99.90
46590;DHT22;32313;48.722;9.362;2022-12-11T07:52:24;-2.60;99.90
46590;DHT22;32313;48.722;9.362;2022-12-11T07:54:50;-2.60;99.90
46590;DHT22;32313;48.722;9.362;2022-12-11T07:57:15;-2.50;99.90
46590;DHT22;32313;48.722;9.362;2022-12-11T07:59:41;-2.50;99.90
46590;DHT22;32313;48.722;9.362;2022-12-11T08:02:09;-2.50;99.90
46590;DHT22;32313;48.722;9.362;2022-12-11T08:04:36;-2.40;99.90
46590;DHT22;32313;48.722;9.362;2022-12-11T08:07:02;-2.40;99.90
46590;DHT22;32313;48.722;9.362;2022-12-11T08:09:27;-2.40;99.90
46590;DHT22;32313;48.722;9.362;2022-12-11T08:11:53;-2.30;99.90
46590;DHT22;32313;48.722;9.362;2022-12-11T08:14:19;-2.30;99.90
46590;DHT22;32313;48.722;9.362;2022-12-11T08:16:45;-2.20;99.90
46590;DHT22;32313;48.722;9.362;2022-12-11T08:19:11;-2.20;99.90
46590;DHT22;32313;48.722;9.362;2022-12-11T08:21:37;-2.10;99.90
46590;DHT22;32313;48.722;9.362;2022-12-11T08:24:03;-2.00;99.90
46590;DHT22;32313;48.722;9.362;2022-12-11T08:26:29;-2.00;99.90
46590;DHT22;32313;48.722;9.362;2022-12-11T08:28:56;-1.90;99.90
46590;DHT22;32313;48.722;9.362;2022-12-11T08:31:22;-2.00;99.90
46590;DHT22;32313;48.722;9.362;2022-12-11T08:33:49;-2.00;99.90
46590;DHT22;32313;48.722;9.362;2022-12-11T08:36:18;-1.90;99.90
46590;DHT22;32313;48.722;9.362;2022-12-11T08:38:44;-1.90;99.90
46590;DHT22;32313;48.722;9.362;2022-12-11T08:41:20;-1.90;99.90
46590;DHT22;32313;48.722;9.362;2022-12-11T08:43:46;-1.90;99.90
46590;DHT22;32313;48.722;9.362;2022-12-11T08:46:13;-1.80;99.90
46590;DHT22;32313;48.722;9.362;2022-12-11T08:48:40;-1.80;99.90
46590;DHT22;32313;48.722;9.362;2022-12-11T08:51:09;-1.70;99.90
46590;DHT22;32313;48.722;9.362;2022-12-11T08:53:35;-1.50;99.90
46590;DHT22;32313;48.722;9.362;2022-12-11T08:58:27;-1.30;99.90
46590;DHT22;32313;48.722;9.362;2022-12-11T09:00:53;-1.10;99.90
46590;DHT22;32313;48.722;9.362;2022-12-11T09:03:19;-1.10;99.90
46590;DHT22;32313;48.722;9.362;2022-12-11T09:05:44;-0.90;99.90
46590;DHT22;32313;48.722;9.362;2022-12-11T09:08:10;-0.80;99.90
46590;DHT22;32313;48.722;9.362;2022-12-11T09:10:36;-0.80;99.90
46590;DHT22;32313;48.722;9.362;2022-12-11T09:13:01;-0.90;99.90
46590;DHT22;32313;48.722;9.362;2022-12-11T09:15:27;-1.00;99.90
46590;DHT22;32313;48.722;9.362;2022-12-11T09:17:52;-1.10;99.90
46590;DHT22;32313;48.722;9.362;2022-12-11T09:20:18;-1.20;99.90
46590;DHT22;32313;48.722;9.362;2022-12-11T09:22:44;-1.30;99.90
46590;DHT22;32313;48.722;9.362;2022-12-11T09:25:10;-1.30;99.90
46590;DHT22;32313;48.722;9.362;2022-12-11T09:27:35;-1.30;99.90
46590;DHT22;32313;48.722;9.362;2022-12-11T09:30:01;-1.20;99.90
46590;DHT22;32313;48.722;9.362;2022-12-11T09:32:26;-1.20;99.90
46590;DHT22;32313;48.722;9.362;2022-12-11T09:34:52;-1.20;99.90
46590;DHT22;32313;48.722;9.362;2022-12-11T09:37:18;-1.20;99.90
46590;DHT22;32313;48.722;9.362;2022-12-11T09:39:43;-1.20;99.90
46590;DHT22;32313;48.722;9.362;2022-12-11T09:42:23;-1.20;99.90
46590;DHT22;32313;48.722;9.362;2022-12-11T09:45:00;-1.10;99.90
46590;DHT22;32313;48.722;9.362;2022-12-11T09:50:20;-1.00;99.90
46590;DHT22;32313;48.722;9.362;2022-12-11T09:55:51;-0.80;99.90
46590;DHT22;32313;48.722;9.362;2022-12-11T09:58:37;-0.80;99.90
46590;DHT22;32313;48.722;9.362;2022-12-11T10:06:29;-0.80;99.90
46590;DHT22;32313;48.722;9.362;2022-12-11T10:17:13;-0.70;99.90
46590;DHT22;32313;48.722;9.362;2022-12-11T10:19:41;-0.70;99.90
46590;DHT22;32313;48.722;9.362;2022-12-11T10:22:17;-0.70;99.90
46590;DHT22;32313;48.722;9.362;2022-12-11T10:25:07;-0.70;99.90
46590;DHT22;32313;48.722;9.362;2022-12-11T10:27:39;-0.70;99.90
46590;DHT22;32313;48.722;9.362;2022-12-11T10:30:18;-0.70;99.90
46590;DHT22;32313;48.722;9.362;2022-12-11T10:32:50;-0.60;99.90
46590;DHT22;32313;48.722;9.362;2022-12-11T10:35:28;-0.60;99.90
46590;DHT22;32313;48.722;9.362;2022-12-11T10:37:58;-0.60;99.90
46590;DHT22;32313;48.722;9.362;2022-12-11T10:40:28;-0.50;99.90
46590;DHT22;32313;48.722;9.362;2022-12-11T10:42:53;-0.50;99.90
46590;DHT22;32313;48.722;9.362;2022-12-11T10:45:19;-0.40;99.90
46590;DHT22;32313;48.722;9.362;2022-12-11T10:47:45;-0.40;99.90
46590;DHT22;32313;48.722;9.362;2022-12-11T10:50:23;-0.30;99.90
46590;DHT22;32313;48.722;9.362;2022-12-11T10:52:49;-0.30;99.90
46590;DHT22;32313;48.722;9.362;2022-12-11T10:55:20;-0.20;99.90
46590;DHT22;32313;48.722;9.362;2022-12-11T10:57:55;0.00;99.90
46590;DHT22;32313;48.722;9.362;2022-12-11T11:00:39;0.10;99.90
46590;DHT22;32313;48.722;9.362;2022-12-11T11:03:24;0.20;99.90
46590;DHT22;32313;48.722;9.362;2022-12-11T11:06:05;0.30;99.90
46590;DHT22;32313;48.722;9.362;2022-12-11T11:08:58;0.20;99.90
46590;DHT22;32313;48.722;9.362;2022-12-11T11:11:33;0.20;99.90
46590;DHT22;32313;48.722;9.362;2022-12-11T11:14:05;0.30;99.90
46590;DHT22;32313;48.722;9.362;2022-12-11T11:16:31;0.20;99.90
46590;DHT22;32313;48.722;9.362;2022-12-11T11:18:59;0.20;99.90
46590;DHT22;32313;48.722;9.362;2022-12-11T11:21:25;0.20;99.90
46590;DHT22;32313;48.722;9.362;2022-12-11T11:23:53;0.20;99.90
46590;DHT22;32313;48.722;9.362;2022-12-11T11:26:20;0.30;99.90
46590;DHT22;32313;48.722;9.362;2022-12-11T11:28:53;0.40;99.90
46590;DHT22;32313;48.722;9.362;2022-12-11T11:31:21;0.50;99.90
46590;DHT22;32313;48.722;9.362;2022-12-11T11:34:20;0.60;99.90
46590;DHT22;32313;48.722;9.362;2022-12-11T11:36:55;0.60;99.90
46590;DHT22;32313;48.722;9.362;2022-12-11T11:39:26;0.60;99.90
46590;DHT22;32313;48.722;9.362;2022-12-11T11:42:10;0.60;99.90
46590;DHT22;32313;48.722;9.362;2022-12-11T11:44:46;0.60;99.90
46590;DHT22;32313;48.722;9.362;2022-12-11T11:47:28;0.50;99.90
46590;DHT22;32313;48.722;9.362;2022-12-11T11:50:11;0.40;99.90
46590;DHT22;32313;48.722;9.362;2022-12-11T11:52:45;0.40;99.90
46590;DHT22;32313;48.722;9.362;2022-12-11T11:55:20;0.40;99.90
46590;DHT22;32313;48.722;9.362;2022-12-11T11:57:59;0.40;99.90
46590;DHT22;32313;48.722;9.362;2022-12-11T12:00:27;0.50;99.90
46590;DHT22;32313;48.722;9.362;2022-12-11T12:03:10;0.40;99.90
46590;DHT22;32313;48.722;9.362;2022-12-11T12:05:51;0.40;99.90
46590;DHT22;32313;48.722;9.362;2022-12-11T12:16:43;0.50;99.90
46590;DHT22;32313;48.722;9.362;2022-12-11T12:25:05;0.70;99.90
46590;DHT22;32313;48.722;9.362;2022-12-11T12:30:39;0.60;99.90
46590;DHT22;32313;48.722;9.362;2022-12-11T12:36:05;0.60;99.90
46590;DHT22;32313;48.722;9.362;2022-12-11T12:38:53;0.70;99.90
46590;DHT22;32313;48.722;9.362;2022-12-11T12:44:19;0.80;99.90
46590;DHT22;32313;48.722;9.362;2022-12-11T12:46:59;0.80;99.90
46590;DHT22;32313;48.722;9.362;2022-12-11T12:49:42;0.70;99.90
46590;DHT22;32313;48.722;9.362;2022-12-11T12:52:15;0.80;99.90
46590;DHT22;32313;48.722;9.362;2022-12-11T12:54:45;0.90;99.90
46590;DHT22;32313;48.722;9.362;2022-12-11T12:57:33;1.00;99.90
46590;DHT22;32313;48.722;9.362;2022-12-11T12:59:59;1.20;99.90
46590;DHT22;32313;48.722;9.362;2022-12-11T13:02:25;1.30;99.90
46590;DHT22;32313;48.722;9.362;2022-12-11T13:05:05;1.30;99.90
46590;DHT22;32313;48.722;9.362;2022-12-11T13:07:32;1.10;99.90
46590;DHT22;32313;48.722;9.362;2022-12-11T13:10:23;0.90;99.90
46590;DHT22;32313;48.722;9.362;2022-12-11T13:12:51;0.70;99.90
46590;DHT22;32313;48.722;9.362;2022-12-11T13:17:48;0.30;99.90
46590;DHT22;32313;48.722;9.362;2022-12-11T13:20:20;0.20;99.90
46590;DHT22;32313;48.722;9.362;2022-12-11T13:23:17;0.10;99.90
46590;DHT22;32313;48.722;9.362;2022-12-11T13:25:52;0.00;99.90
46590;DHT22;32313;48.722;9.362;2022-12-11T13:33:46;0.10;99.90
46590;DHT22;32313;48.722;9.362;2022-12-11T13:36:54;0.10;99.90
46590;DHT22;32313;48.722;9.362;2022-12-11T13:39:24;0.10;99.90
46590;DHT22;32313;48.722;9.362;2022-12-11T13:42:21;0.10;99.90
46590;DHT22;32313;48.722;9.362;2022-12-11T13:44:50;0.10;99.90
46590;DHT22;32313;48.722;9.362;2022-12-11T13:47:17;0.10;99.90
46590;DHT22;32313;48.722;9.362;2022-12-11T13:49:46;0.10;99.90
46590;DHT22;32313;48.722;9.362;2022-12-11T13:52:20;0.10;99.90
46590;DHT22;32313;48.722;9.362;2022-12-11T13:54:52;0.00;99.90
46590;DHT22;32313;48.722;9.362;2022-12-11T13:57:23;0.00;99.90
46590;DHT22;32313;48.722;9.362;2022-12-11T13:59:52;0.00;99.90
46590;DHT22;32313;48.722;9.362;2022-12-11T14:02:28;0.00;99.90
46590;DHT22;32313;48.722;9.362;2022-12-11T14:04:59;-0.10;99.90
46590;DHT22;32313;48.722;9.362;2022-12-11T14:07:32;0.00;99.90
46590;DHT22;32313;48.722;9.362;2022-12-11T14:10:21;0.10;99.90
46590;DHT22;32313;48.722;9.362;2022-12-11T14:13:16;0.30;99.90
46590;DHT22;32313;48.722;9.362;2022-12-11T14:15:44;0.20;99.90
46590;DHT22;32313;48.722;9.362;2022-12-11T14:18:23;0.10;99.90
46590;DHT22;32313;48.722;9.362;2022-12-11T14:21:00;-0.20;99.90
46590;DHT22;32313;48.722;9.362;2022-12-11T14:23:28;-0.20;99.90
46590;DHT22;32313;48.722;9.362;2022-12-11T14:25:57;-0.30;99.90
46590;DHT22;32313;48.722;9.362;2022-12-11T14:28:25;-0.40;99.90
46590;DHT22;32313;48.722;9.362;2022-12-11T14:30:57;-0.50;99.90
46590;DHT22;32313;48.722;9.362;2022-12-11T14:33:45;-0.80;99.90
46590;DHT22;32313;48.722;9.362;2022-12-11T14:36:13;-0.90;99.90
46590;DHT22;32313;48.722;9.362;2022-12-11T14:39:02;-1.10;99.90
46590;DHT22;32313;48.722;9.362;2022-12-11T14:41:51;-1.10;99.90
46590;DHT22;32313;48.722;9.362;2022-12-11T14:44:19;-1.20;99.90
46590;DHT22;32313;48.722;9.362;2022-12-11T14:47:04;-1.20;99.90
46590;DHT22;32313;48.722;9.362;2022-12-11T14:50:02;-1.30;99.90
46590;DHT22;32313;48.722;9.362;2022-12-11T14:52:43;-1.40;99.90
46590;DHT22;32313;48.722;9.362;2022-12-11T14:55:26;-1.50;99.90
46590;DHT22;32313;48.722;9.362;2022-12-11T14:57:56;-1.60;99.90
46590;DHT22;32313;48.722;9.362;2022-12-11T15:00:31;-1.80;99.90
46590;DHT22;32313;48.722;9.362;2022-12-11T15:03:05;-1.80;99.90
46590;DHT22;32313;48.722;9.362;2022-12-11T15:05:32;-1.90;99.90
46590;DHT22;32313;48.722;9.362;2022-12-11T15:11:02;-1.80;99.90
46590;DHT22;32313;48.722;9.362;2022-12-11T15:13:29;-1.70;99.90
46590;DHT22;32313;48.722;9.362;2022-12-11T15:15:56;-1.60;99.90
46590;DHT22;32313;48.722;9.362;2022-12-11T15:20:56;-1.60;99.90
46590;DHT22;32313;48.722;9.362;2022-12-11T15:23:23;-1.60;99.90
46590;DHT22;32313;48.722;9.362;2022-12-11T15:25:51;-1.50;99.90
46590;DHT22;32313;48.722;9.362;2022-12-11T15:28:31;-1.50;99.90
46590;DHT22;32313;48.722;9.362;2022-12-11T15:31:03;-1.50;99.90
46590;DHT22;32313;48.722;9.362;2022-12-11T15:33:29;-1.60;99.90
46590;DHT22;32313;48.722;9.362;2022-12-11T15:36:18;-1.70;99.90
46590;DHT22;32313;48.722;9.362;2022-12-11T15:38:45;-1.90;99.90
46590;DHT22;32313;48.722;9.362;2022-12-11T15:41:16;-2.10;99.90
46590;DHT22;32313;48.722;9.362;2022-12-11T15:43:45;-2.20;99.90
46590;DHT22;32313;48.722;9.362;2022-12-11T15:46:11;-2.30;99.90
46590;DHT22;32313;48.722;9.362;2022-12-11T15:48:37;-2.40;99.90
46590;DHT22;32313;48.722;9.362;2022-12-11T15:51:03;-2.50;99.90
46590;DHT22;32313;48.722;9.362;2022-12-11T15:53:29;-2.60;99.90
46590;DHT22;32313;48.722;9.362;2022-12-11T15:55:56;-2.70;99.90
46590;DHT22;32313;48.722;9.362;2022-12-11T15:58:23;-2.70;99.90
46590;DHT22;32313;48.722;9.362;2022-12-11T16:00:51;-2.70;99.90
46590;DHT22;32313;48.722;9.362;2022-12-11T16:03:19;-2.70;99.90
46590;DHT22;32313;48.722;9.362;2022-12-11T16:05:45;-2.70;99.90
46590;DHT22;32313;48.722;9.362;2022-12-11T16:08:13;-2.70;99.90
46590;DHT22;32313;48.722;9.362;2022-12-11T16:10:41;-2.70;99.90
46590;DHT22;32313;48.722;9.362;2022-12-11T16:13:07;-2.70;99.90
46590;DHT22;32313;48.722;9.362;2022-12-11T16:15:33;-2.70;99.90
46590;DHT22;32313;48.722;9.362;2022-12-11T16:18:03;-2.70;99.90
46590;DHT22;32313;48.722;9.362;2022-12-11T16:20:30;-2.70;99.90
46590;DHT22;32313;48.722;9.362;2022-12-11T16:22:56;-2.70;99.90
46590;DHT22;32313;48.722;9.362;2022-12-11T16:25:23;-2.70;99.90
46590;DHT22;32313;48.722;9.362;2022-12-11T16:27:49;-2.70;99.90
46590;DHT22;32313;48.722;9.362;2022-12-11T16:30:15;-2.80;99.90
46590;DHT22;32313;48.722;9.362;2022-12-11T16:32:41;-2.80;99.90
46590;DHT22;32313;48.722;9.362;2022-12-11T16:35:06;-2.90;99.90
46590;DHT22;32313;48.722;9.362;2022-12-11T16:37:32;-2.90;99.90
46590;DHT22;32313;48.722;9.362;2022-12-11T16:39:58;-2.80;99.90
46590;DHT22;32313;48.722;9.362;2022-12-11T16:42:24;-2.80;99.90
46590;DHT22;32313;48.722;9.362;2022-12-11T16:44:49;-2.60;99.90
46590;DHT22;32313;48.722;9.362;2022-12-11T16:47:15;-2.50;99.90
46590;DHT22;32313;48.722;9.362;2022-12-11T16:49:41;-2.50;99.90
46590;DHT22;32313;48.722;9.362;2022-12-11T16:52:07;-2.40;99.90
46590;DHT22;32313;48.722;9.362;2022-12-11T16:54:33;-2.40;99.90
46590;DHT22;32313;48.722;9.362;2022-12-11T16:56:59;-2.30;99.90
46590;DHT22;32313;48.722;9.362;2022-12-11T16:59:24;-2.40;99.90
46590;DHT22;32313;48.722;9.362;2022-12-11T17:01:50;-2.40;99.90
46590;DHT22;32313;48.722;9.362;2022-12-11T17:04:16;-2.30;99.90